createdAt,value
2019-03-27T00:00:52.611Z,1033.5
2019-03-27T00:01:52.484Z,1033.45
2019-03-27T00:02:52.510Z,1033.5
2019-03-27T00:03:52.415Z,1033.48
2019-03-27T00:04:52.507Z,1033.47
2019-03-27T00:05:52.522Z,1033.43
2019-03-27T00:06:52.559Z,1033.45
2019-03-27T00:07:52.488Z,1033.4
2019-03-27T00:08:52.597Z,1033.39
2019-03-27T00:09:52.704Z,1033.42
2019-03-27T00:10:52.588Z,1033.39
2019-03-27T00:11:52.429Z,1033.36
2019-03-27T00:12:52.466Z,1033.38
2019-03-27T00:13:52.453Z,1033.34
2019-03-27T00:14:52.460Z,1033.33
2019-03-27T00:15:52.547Z,1033.39
2019-03-27T00:16:52.505Z,1033.37
2019-03-27T00:17:52.500Z,1033.39
2019-03-27T00:18:52.502Z,1033.39
2019-03-27T00:19:52.528Z,1033.35
2019-03-27T00:20:52.506Z,1033.36
2019-03-27T00:21:52.663Z,1033.3
2019-03-27T00:22:52.487Z,1033.36
2019-03-27T00:23:52.682Z,1033.33
2019-03-27T00:24:52.605Z,1033.34
2019-03-27T00:25:52.594Z,1033.35
2019-03-27T00:26:52.362Z,1033.34
2019-03-27T00:27:52.658Z,1033.34
2019-03-27T00:28:52.637Z,1033.33
2019-03-27T00:29:52.628Z,1033.34
2019-03-27T00:30:52.695Z,1033.33
2019-03-27T00:31:54.318Z,1033.32
2019-03-27T00:32:52.380Z,1033.35
2019-03-27T00:33:52.526Z,1033.3
2019-03-27T00:34:52.601Z,1033.28
2019-03-27T00:35:52.423Z,1033.32
2019-03-27T00:36:52.432Z,1033.26
2019-03-27T00:37:52.544Z,1033.23
2019-03-27T00:38:52.477Z,1033.22
2019-03-27T00:39:52.533Z,1033.22
2019-03-27T00:40:52.511Z,1033.2
2019-03-27T00:41:52.631Z,1033.18
2019-03-27T00:42:52.526Z,1033.2
2019-03-27T00:43:52.538Z,1033.21
2019-03-27T00:44:52.546Z,1033.22
2019-03-27T00:45:52.632Z,1033.21
2019-03-27T00:46:52.577Z,1033.2
2019-03-27T00:47:52.704Z,1033.22
2019-03-27T00:48:52.401Z,1033.25
2019-03-27T00:49:52.506Z,1033.26
2019-03-27T00:50:52.439Z,1033.28
2019-03-27T00:51:52.353Z,1033.27
2019-03-27T00:52:52.844Z,1033.25
2019-03-27T00:53:52.493Z,1033.26
2019-03-27T00:54:52.486Z,1033.29
2019-03-27T00:55:52.469Z,1033.28
2019-03-27T00:56:52.569Z,1033.29
2019-03-27T00:57:52.431Z,1033.29
2019-03-27T00:58:52.517Z,1033.27
2019-03-27T00:59:52.539Z,1033.26
2019-03-27T01:00:52.566Z,1033.22
2019-03-27T01:01:52.557Z,1033.23
2019-03-27T01:02:52.582Z,1033.24
2019-03-27T01:03:52.588Z,1033.19
2019-03-27T01:04:52.706Z,1033.19
2019-03-27T01:05:52.383Z,1033.2
2019-03-27T01:06:52.383Z,1033.19
2019-03-27T01:07:52.460Z,1033.25
2019-03-27T01:08:52.481Z,1033.2
2019-03-27T01:09:52.444Z,1033.2
2019-03-27T01:10:52.400Z,1033.17
2019-03-27T01:11:52.437Z,1033.2
2019-03-27T01:12:52.545Z,1033.18
2019-03-27T01:13:52.384Z,1033.14
2019-03-27T01:14:52.635Z,1033.14
2019-03-27T01:15:52.477Z,1033.12
2019-03-27T01:16:53.713Z,1033.21
2019-03-27T01:17:52.553Z,1033.2
2019-03-27T01:18:52.534Z,1033.21
2019-03-27T01:19:52.524Z,1033.2
2019-03-27T01:20:52.541Z,1033.2
2019-03-27T01:21:52.741Z,1033.21
2019-03-27T01:22:52.460Z,1033.22
2019-03-27T01:23:52.713Z,1033.24
2019-03-27T01:24:52.379Z,1033.22
2019-03-27T01:25:52.480Z,1033.18
2019-03-27T01:26:55.156Z,1033.17
2019-03-27T01:27:52.514Z,1033.22
2019-03-27T01:28:52.422Z,1033.2
2019-03-27T01:29:52.349Z,1033.21
2019-03-27T01:30:52.471Z,1033.18
2019-03-27T01:31:52.470Z,1033.19
2019-03-27T01:32:52.348Z,1033.18
2019-03-27T01:33:52.614Z,1033.17
2019-03-27T01:34:52.570Z,1033.17
2019-03-27T01:35:52.624Z,1033.17
2019-03-27T01:36:52.875Z,1033.23
2019-03-27T01:37:52.539Z,1033.17
2019-03-27T01:38:52.581Z,1033.15
2019-03-27T01:39:52.614Z,1033.13
2019-03-27T01:40:52.340Z,1033.16
2019-03-27T01:41:52.679Z,1033.17
2019-03-27T01:42:52.624Z,1033.26
2019-03-27T01:43:52.340Z,1033.16
2019-03-27T01:44:52.378Z,1033.24
2019-03-27T01:45:53.640Z,1033.18
2019-03-27T01:46:52.456Z,1033.18
2019-03-27T01:47:52.355Z,1033.17
2019-03-27T01:48:52.400Z,1033.16
2019-03-27T01:49:52.401Z,1033.13
2019-03-27T01:50:52.423Z,1033.12
2019-03-27T01:51:52.555Z,1033.14
2019-03-27T01:52:52.466Z,1033.14
2019-03-27T01:53:52.634Z,1033.2
2019-03-27T01:54:52.464Z,1033.15
2019-03-27T01:55:52.574Z,1033.14
2019-03-27T01:56:52.355Z,1033.14
2019-03-27T01:57:53.027Z,1033.16
2019-03-27T01:58:52.471Z,1033.12
2019-03-27T01:59:52.564Z,1033.16
2019-03-27T02:00:52.314Z,1033.12
2019-03-27T02:01:52.611Z,1033.15
2019-03-27T02:02:52.359Z,1033.11
2019-03-27T02:03:52.383Z,1033.08
2019-03-27T02:04:52.425Z,1033.03
2019-03-27T02:05:52.388Z,1033.02
2019-03-27T02:06:52.422Z,1032.98
2019-03-27T02:07:52.473Z,1032.99
2019-03-27T02:08:52.425Z,1032.97
2019-03-27T02:09:52.545Z,1032.99
2019-03-27T02:10:52.489Z,1033.02
2019-03-27T02:11:52.520Z,1033.03
2019-03-27T02:12:52.616Z,1033.04
2019-03-27T02:13:52.483Z,1033.04
2019-03-27T02:14:52.703Z,1033.05
2019-03-27T02:16:07.628Z,1033.07
2019-03-27T02:16:52.680Z,1033.1
2019-03-27T02:17:52.678Z,1033.16
2019-03-27T02:18:52.704Z,1033.17
2019-03-27T02:19:53.034Z,1033.2
2019-03-27T02:20:52.659Z,1033.19
2019-03-27T02:21:52.526Z,1033.21
2019-03-27T02:22:52.408Z,1033.15
2019-03-27T02:23:52.358Z,1033.19
2019-03-27T02:24:52.367Z,1033.18
2019-03-27T02:25:52.309Z,1033.21
2019-03-27T02:26:52.438Z,1033.22
2019-03-27T02:27:52.390Z,1033.22
2019-03-27T02:28:52.406Z,1033.2
2019-03-27T02:29:52.327Z,1033.24
2019-03-27T02:30:52.441Z,1033.23
2019-03-27T02:31:52.557Z,1033.25
2019-03-27T02:32:52.632Z,1033.25
2019-03-27T02:33:52.519Z,1033.26
2019-03-27T02:34:52.571Z,1033.26
2019-03-27T02:35:52.521Z,1033.28
2019-03-27T02:36:52.533Z,1033.26
2019-03-27T02:37:52.537Z,1033.28
2019-03-27T02:38:52.664Z,1033.29
2019-03-27T02:39:52.543Z,1033.25
2019-03-27T02:40:52.468Z,1033.24
2019-03-27T02:41:52.382Z,1033.22
2019-03-27T02:42:52.509Z,1033.25
2019-03-27T02:43:52.440Z,1033.2
2019-03-27T02:44:52.412Z,1033.26
2019-03-27T02:45:52.327Z,1033.27
2019-03-27T02:46:52.436Z,1033.29
2019-03-27T02:47:52.528Z,1033.27
2019-03-27T02:48:52.496Z,1033.23
2019-03-27T02:49:53.348Z,1033.21
2019-03-27T02:50:52.521Z,1033.22
2019-03-27T02:51:52.626Z,1033.22
2019-03-27T02:52:52.317Z,1033.22
2019-03-27T02:53:52.575Z,1033.2
2019-03-27T02:54:52.597Z,1033.23
2019-03-27T02:55:52.557Z,1033.23
2019-03-27T02:56:52.309Z,1033.25
2019-03-27T02:57:52.603Z,1033.23
2019-03-27T02:58:52.618Z,1033.2
2019-03-27T02:59:52.354Z,1033.25
2019-03-27T03:00:52.386Z,1033.3
2019-03-27T03:01:52.856Z,1033.28
2019-03-27T03:02:52.340Z,1033.26
2019-03-27T03:03:52.428Z,1033.27
2019-03-27T03:04:52.344Z,1033.3
2019-03-27T03:05:52.684Z,1033.3
2019-03-27T03:06:52.459Z,1033.28
2019-03-27T03:07:52.423Z,1033.26
2019-03-27T03:08:52.290Z,1033.27
2019-03-27T03:09:52.498Z,1033.28
2019-03-27T03:10:52.642Z,1033.26
2019-03-27T03:11:52.499Z,1033.34
2019-03-27T03:12:52.361Z,1033.3
2019-03-27T03:13:52.680Z,1033.26
2019-03-27T03:14:52.825Z,1033.27
2019-03-27T03:15:52.582Z,1033.3
2019-03-27T03:16:52.341Z,1033.29
2019-03-27T03:17:52.457Z,1033.27
2019-03-27T03:18:52.535Z,1033.27
2019-03-27T03:19:52.463Z,1033.28
2019-03-27T03:20:52.519Z,1033.28
2019-03-27T03:21:52.570Z,1033.27
2019-03-27T03:22:52.579Z,1033.23
2019-03-27T03:23:53.413Z,1033.21
2019-03-27T03:24:52.503Z,1033.2
2019-03-27T03:25:52.719Z,1033.23
2019-03-27T03:26:52.521Z,1033.26
2019-03-27T03:27:52.508Z,1033.2
2019-03-27T03:28:52.524Z,1033.23
2019-03-27T03:29:52.510Z,1033.2
2019-03-27T03:30:52.556Z,1033.21
2019-03-27T03:31:52.314Z,1033.19
2019-03-27T03:32:52.734Z,1033.17
2019-03-27T03:33:52.591Z,1033.21
2019-03-27T03:34:52.318Z,1033.21
2019-03-27T03:35:52.628Z,1033.23
2019-03-27T03:36:52.354Z,1033.23
2019-03-27T03:37:52.388Z,1033.21
2019-03-27T03:38:52.556Z,1033.21
2019-03-27T03:39:52.412Z,1033.21
2019-03-27T03:40:53.030Z,1033.22
2019-03-27T03:41:52.387Z,1033.23
2019-03-27T03:42:52.399Z,1033.22
2019-03-27T03:43:52.368Z,1033.26
2019-03-27T03:44:52.535Z,1033.26
2019-03-27T03:45:54.307Z,1033.25
2019-03-27T03:47:00.812Z,1033.24
2019-03-27T03:47:52.446Z,1033.26
2019-03-27T03:48:52.523Z,1033.29
2019-03-27T03:49:52.530Z,1033.29
2019-03-27T03:50:52.500Z,1033.3
2019-03-27T03:51:52.475Z,1033.33
2019-03-27T03:52:52.353Z,1033.3
2019-03-27T03:53:52.353Z,1033.28
2019-03-27T03:54:52.298Z,1033.28
2019-03-27T03:55:52.391Z,1033.27
2019-03-27T03:56:52.398Z,1033.32
2019-03-27T03:57:52.434Z,1033.28
2019-03-27T03:58:52.294Z,1033.27
2019-03-27T03:59:52.532Z,1033.29
2019-03-27T04:00:52.560Z,1033.28
2019-03-27T04:01:52.341Z,1033.28
2019-03-27T04:02:52.557Z,1033.32
2019-03-27T04:03:52.504Z,1033.31
2019-03-27T04:04:52.537Z,1033.38
2019-03-27T04:05:52.629Z,1033.36
2019-03-27T04:06:52.798Z,1033.36
2019-03-27T04:07:52.584Z,1033.36
2019-03-27T04:08:52.827Z,1033.36
2019-03-27T04:09:52.322Z,1033.37
2019-03-27T04:10:52.424Z,1033.35
2019-03-27T04:11:52.774Z,1033.38
2019-03-27T04:12:52.381Z,1033.36
2019-03-27T04:13:52.378Z,1033.37
2019-03-27T04:14:52.361Z,1033.35
2019-03-27T04:15:52.353Z,1033.4
2019-03-27T04:16:52.532Z,1033.36
2019-03-27T04:17:52.513Z,1033.35
2019-03-27T04:18:52.421Z,1033.33
2019-03-27T04:19:52.501Z,1033.32
2019-03-27T04:20:52.446Z,1033.32
2019-03-27T04:21:52.815Z,1033.33
2019-03-27T04:22:52.462Z,1033.35
2019-03-27T04:23:52.636Z,1033.33
2019-03-27T04:24:52.653Z,1033.37
2019-03-27T04:26:11.136Z,1033.36
2019-03-27T04:26:52.599Z,1033.37
2019-03-27T04:27:52.544Z,1033.36
2019-03-27T04:28:52.673Z,1033.33
2019-03-27T04:29:52.394Z,1033.31
2019-03-27T04:30:52.376Z,1033.32
2019-03-27T04:31:52.422Z,1033.31
2019-03-27T04:32:52.494Z,1033.3
2019-03-27T04:33:52.446Z,1033.35
2019-03-27T04:34:52.398Z,1033.33
2019-03-27T04:35:52.562Z,1033.36
2019-03-27T04:36:52.431Z,1033.37
2019-03-27T04:37:52.436Z,1033.32
2019-03-27T04:38:52.481Z,1033.3
2019-03-27T04:39:52.550Z,1033.33
2019-03-27T04:40:52.467Z,1033.31
2019-03-27T04:41:52.515Z,1033.28
2019-03-27T04:42:52.486Z,1033.3
2019-03-27T04:43:52.613Z,1033.31
2019-03-27T04:44:52.626Z,1033.33
2019-03-27T04:45:52.552Z,1033.31
2019-03-27T04:46:52.262Z,1033.29
2019-03-27T04:47:52.381Z,1033.32
2019-03-27T04:48:52.298Z,1033.34
2019-03-27T04:49:52.595Z,1033.32
2019-03-27T04:50:53.359Z,1033.31
2019-03-27T04:51:52.339Z,1033.32
2019-03-27T04:52:52.358Z,1033.33
2019-03-27T04:53:52.446Z,1033.34
2019-03-27T04:54:52.385Z,1033.37
2019-03-27T04:55:52.383Z,1033.39
2019-03-27T04:56:52.411Z,1033.39
2019-03-27T04:57:52.426Z,1033.41
2019-03-27T04:58:52.449Z,1033.42
2019-03-27T04:59:52.432Z,1033.39
2019-03-27T05:00:52.469Z,1033.39
2019-03-27T05:01:52.481Z,1033.43
2019-03-27T05:02:52.446Z,1033.44
2019-03-27T05:03:52.496Z,1033.41
2019-03-27T05:04:52.320Z,1033.42
2019-03-27T05:05:52.370Z,1033.42
2019-03-27T05:06:52.443Z,1033.44
2019-03-27T05:07:52.437Z,1033.48
2019-03-27T05:08:52.355Z,1033.44
2019-03-27T05:09:52.355Z,1033.46
2019-03-27T05:10:52.395Z,1033.45
2019-03-27T05:11:52.497Z,1033.45
2019-03-27T05:12:52.533Z,1033.46
2019-03-27T05:13:52.450Z,1033.44
2019-03-27T05:14:52.431Z,1033.47
2019-03-27T05:15:52.430Z,1033.45
2019-03-27T05:16:52.431Z,1033.43
2019-03-27T05:17:52.551Z,1033.42
2019-03-27T05:18:52.605Z,1033.37
2019-03-27T05:19:52.540Z,1033.43
2019-03-27T05:20:52.525Z,1033.43
2019-03-27T05:21:52.520Z,1033.46
2019-03-27T05:22:52.269Z,1033.47
2019-03-27T05:23:52.248Z,1033.46
2019-03-27T05:24:52.264Z,1033.44
2019-03-27T05:25:52.275Z,1033.5
2019-03-27T05:26:52.309Z,1033.53
2019-03-27T05:27:52.271Z,1033.51
2019-03-27T05:28:52.321Z,1033.53
2019-03-27T05:29:52.319Z,1033.57
2019-03-27T05:30:52.344Z,1033.56
2019-03-27T05:31:52.389Z,1033.55
2019-03-27T05:32:52.490Z,1033.59
2019-03-27T05:33:52.732Z,1033.6
2019-03-27T05:34:52.410Z,1033.62
2019-03-27T05:35:52.420Z,1033.63
2019-03-27T05:36:52.425Z,1033.65
2019-03-27T05:37:52.583Z,1033.64
2019-03-27T05:38:52.563Z,1033.64
2019-03-27T05:39:52.466Z,1033.67
2019-03-27T05:40:52.486Z,1033.68
2019-03-27T05:41:52.297Z,1033.65
2019-03-27T05:43:01.495Z,1033.66
2019-03-27T05:43:52.305Z,1033.67
2019-03-27T05:44:52.453Z,1033.69
2019-03-27T05:45:52.328Z,1033.71
2019-03-27T05:46:52.331Z,1033.71
2019-03-27T05:48:00.272Z,1033.71
2019-03-27T05:48:52.493Z,1033.69
2019-03-27T05:49:52.393Z,1033.69
2019-03-27T05:50:52.411Z,1033.76
2019-03-27T05:51:52.514Z,1033.72
2019-03-27T05:52:52.543Z,1033.73
2019-03-27T05:53:52.511Z,1033.77
2019-03-27T05:54:52.655Z,1033.74
2019-03-27T05:55:52.561Z,1033.78
2019-03-27T05:56:52.500Z,1033.76
2019-03-27T05:57:52.490Z,1033.8
2019-03-27T05:58:52.669Z,1033.81
2019-03-27T05:59:52.528Z,1033.83
2019-03-27T06:00:52.246Z,1033.86
2019-03-27T06:01:52.418Z,1033.83
2019-03-27T06:02:52.393Z,1033.87
2019-03-27T06:03:52.295Z,1033.87
2019-03-27T06:04:52.478Z,1033.87
2019-03-27T06:05:52.342Z,1033.9
2019-03-27T06:06:52.303Z,1033.88
2019-03-27T06:07:52.330Z,1033.89
2019-03-27T06:08:52.364Z,1033.87
2019-03-27T06:09:52.526Z,1033.85
2019-03-27T06:10:52.517Z,1033.87
2019-03-27T06:11:52.544Z,1033.88
2019-03-27T06:12:52.537Z,1033.91
2019-03-27T06:13:52.418Z,1033.89
2019-03-27T06:14:52.435Z,1033.87
2019-03-27T06:15:52.553Z,1033.89
2019-03-27T06:16:52.799Z,1033.85
2019-03-27T06:17:52.476Z,1033.92
2019-03-27T06:18:52.358Z,1033.9
2019-03-27T06:19:52.279Z,1033.91
2019-03-27T06:20:52.302Z,1033.95
2019-03-27T06:21:52.300Z,1033.93
2019-03-27T06:22:52.347Z,1033.89
2019-03-27T06:23:52.391Z,1033.93
2019-03-27T06:24:52.400Z,1033.91
2019-03-27T06:25:52.384Z,1033.91
2019-03-27T06:26:52.466Z,1033.93
2019-03-27T06:27:52.384Z,1033.94
2019-03-27T06:28:52.395Z,1033.95
2019-03-27T06:29:52.490Z,1033.95
2019-03-27T06:30:52.460Z,1033.94
2019-03-27T06:31:52.453Z,1033.89
2019-03-27T06:32:52.454Z,1033.93
2019-03-27T06:33:52.589Z,1033.9
2019-03-27T06:34:52.517Z,1033.86
2019-03-27T06:35:52.524Z,1033.86
2019-03-27T06:36:52.655Z,1033.85
2019-03-27T06:37:52.957Z,1033.84
2019-03-27T06:38:52.207Z,1033.84
2019-03-27T06:39:52.236Z,1033.85
2019-03-27T06:40:52.284Z,1033.83
2019-03-27T06:41:52.315Z,1033.85
2019-03-27T06:42:52.333Z,1033.88
2019-03-27T06:43:52.300Z,1033.86
2019-03-27T06:44:52.450Z,1033.85
2019-03-27T06:45:52.443Z,1033.86
2019-03-27T06:46:52.368Z,1033.88
2019-03-27T06:47:52.383Z,1033.89
2019-03-27T06:48:52.397Z,1033.9
2019-03-27T06:49:52.486Z,1033.96
2019-03-27T06:50:52.408Z,1033.94
2019-03-27T06:51:52.438Z,1033.95
2019-03-27T06:52:52.440Z,1033.98
2019-03-27T06:53:52.448Z,1034.03
2019-03-27T06:54:52.592Z,1034.05
2019-03-27T06:55:52.255Z,1034.08
2019-03-27T06:56:52.318Z,1034.06
2019-03-27T06:57:52.399Z,1034.07
2019-03-27T06:58:55.357Z,1034.06
2019-03-27T06:59:52.645Z,1034.1
2019-03-27T07:00:52.315Z,1034.11
2019-03-27T07:01:52.461Z,1034.14
2019-03-27T07:02:52.514Z,1034.16
2019-03-27T07:03:52.501Z,1034.17
2019-03-27T07:04:52.395Z,1034.19
2019-03-27T07:05:52.539Z,1034.2
2019-03-27T07:06:52.443Z,1034.19
2019-03-27T07:07:52.383Z,1034.19
2019-03-27T07:08:52.427Z,1034.17
2019-03-27T07:09:52.586Z,1034.2
2019-03-27T07:10:52.598Z,1034.16
2019-03-27T07:11:52.438Z,1034.16
2019-03-27T07:12:52.642Z,1034.18
2019-03-27T07:13:52.342Z,1034.15
2019-03-27T07:14:52.214Z,1034.14
2019-03-27T07:15:52.233Z,1034.18
2019-03-27T07:16:52.325Z,1034.19
2019-03-27T07:17:52.236Z,1034.17
2019-03-27T07:18:52.303Z,1034.13
2019-03-27T07:19:52.337Z,1034.15
2019-03-27T07:20:52.667Z,1034.12
2019-03-27T07:21:52.319Z,1034.16
2019-03-27T07:22:52.404Z,1034.16
2019-03-27T07:23:52.338Z,1034.15
2019-03-27T07:24:52.351Z,1034.13
2019-03-27T07:25:52.446Z,1034.16
2019-03-27T07:26:52.497Z,1034.12
2019-03-27T07:27:52.417Z,1034.16
2019-03-27T07:28:52.496Z,1034.18
2019-03-27T07:29:52.507Z,1034.21
2019-03-27T07:30:52.548Z,1034.23
2019-03-27T07:31:52.601Z,1034.21
2019-03-27T07:32:52.325Z,1034.25
2019-03-27T07:33:52.373Z,1034.25
2019-03-27T07:34:52.329Z,1034.23
2019-03-27T07:35:52.400Z,1034.2
2019-03-27T07:36:52.374Z,1034.21
2019-03-27T07:37:52.320Z,1034.25
2019-03-27T07:38:52.362Z,1034.25
2019-03-27T07:39:52.450Z,1034.28
2019-03-27T07:40:52.430Z,1034.29
2019-03-27T07:41:52.721Z,1034.29
2019-03-27T07:42:52.716Z,1034.31
2019-03-27T07:43:52.404Z,1034.34
2019-03-27T07:44:52.408Z,1034.37
2019-03-27T07:45:52.621Z,1034.36
2019-03-27T07:46:52.445Z,1034.34
2019-03-27T07:47:52.483Z,1034.37
2019-03-27T07:48:54.688Z,1034.42
2019-03-27T07:49:52.430Z,1034.45
2019-03-27T07:50:52.238Z,1034.46
2019-03-27T07:51:52.249Z,1034.45
2019-03-27T07:52:52.233Z,1034.48
2019-03-27T07:53:52.272Z,1034.47
2019-03-27T07:54:52.291Z,1034.53
2019-03-27T07:55:52.288Z,1034.52
2019-03-27T07:56:52.316Z,1034.53
2019-03-27T07:57:52.424Z,1034.54
2019-03-27T07:58:52.626Z,1034.55
2019-03-27T07:59:52.329Z,1034.5
2019-03-27T08:00:52.349Z,1034.53
2019-03-27T08:01:52.379Z,1034.49
2019-03-27T08:02:52.380Z,1034.55
2019-03-27T08:03:52.529Z,1034.55
2019-03-27T08:04:52.443Z,1034.57
2019-03-27T08:05:52.441Z,1034.59
2019-03-27T08:06:52.443Z,1034.58
2019-03-27T08:07:52.294Z,1034.55
2019-03-27T08:08:52.521Z,1034.6
2019-03-27T08:09:52.236Z,1034.56
2019-03-27T08:10:52.340Z,1034.56
2019-03-27T08:11:52.398Z,1034.59
2019-03-27T08:12:52.319Z,1034.59
2019-03-27T08:13:52.458Z,1034.59
2019-03-27T08:14:52.508Z,1034.53
2019-03-27T08:15:52.500Z,1034.54
2019-03-27T08:16:52.506Z,1034.49
2019-03-27T08:17:52.403Z,1034.54
2019-03-27T08:18:52.397Z,1034.52
2019-03-27T08:19:52.429Z,1034.51
2019-03-27T08:20:52.445Z,1034.52
2019-03-27T08:21:52.564Z,1034.49
2019-03-27T08:22:52.558Z,1034.52
2019-03-27T08:23:52.333Z,1034.51
2019-03-27T08:24:52.214Z,1034.52
2019-03-27T08:25:52.814Z,1034.5
2019-03-27T08:26:52.745Z,1034.5
2019-03-27T08:27:52.240Z,1034.49
2019-03-27T08:28:52.258Z,1034.52
2019-03-27T08:29:52.280Z,1034.53
2019-03-27T08:30:52.278Z,1034.52
2019-03-27T08:31:52.508Z,1034.52
2019-03-27T08:32:52.363Z,1034.49
2019-03-27T08:33:52.490Z,1034.46
2019-03-27T08:34:52.349Z,1034.49
2019-03-27T08:35:52.475Z,1034.45
2019-03-27T08:36:52.405Z,1034.5
2019-03-27T08:37:52.405Z,1034.46
2019-03-27T08:38:52.552Z,1034.46
2019-03-27T08:39:52.396Z,1034.44
2019-03-27T08:40:52.315Z,1034.48
2019-03-27T08:41:52.231Z,1034.46
2019-03-27T08:42:52.257Z,1034.5
2019-03-27T08:43:52.266Z,1034.53
2019-03-27T08:44:52.400Z,1034.51
2019-03-27T08:45:52.352Z,1034.51
2019-03-27T08:46:52.261Z,1034.49
2019-03-27T08:47:52.680Z,1034.51
2019-03-27T08:48:52.311Z,1034.55
2019-03-27T08:49:52.326Z,1034.54
2019-03-27T08:50:52.391Z,1034.54
2019-03-27T08:51:52.415Z,1034.53
2019-03-27T08:52:52.382Z,1034.59
2019-03-27T08:53:52.365Z,1034.56
2019-03-27T08:54:52.378Z,1034.6
2019-03-27T08:55:52.389Z,1034.59
2019-03-27T08:56:52.485Z,1034.56
2019-03-27T08:57:52.438Z,1034.6
2019-03-27T08:58:52.455Z,1034.58
2019-03-27T08:59:52.488Z,1034.59
2019-03-27T09:00:52.189Z,1034.6
2019-03-27T09:01:52.304Z,1034.62
2019-03-27T09:02:52.228Z,1034.66
2019-03-27T09:03:52.416Z,1034.64
2019-03-27T09:04:52.429Z,1034.62
2019-03-27T09:05:52.256Z,1034.61
2019-03-27T09:06:52.519Z,1034.59
2019-03-27T09:07:52.311Z,1034.61
2019-03-27T09:08:52.487Z,1034.64
2019-03-27T09:09:53.670Z,1034.66
2019-03-27T09:10:52.472Z,1034.64
2019-03-27T09:11:52.355Z,1034.63
2019-03-27T09:12:52.651Z,1034.67
2019-03-27T09:13:52.402Z,1034.67
2019-03-27T09:14:52.430Z,1034.7
2019-03-27T09:15:52.496Z,1034.66
2019-03-27T09:16:52.301Z,1034.65
2019-03-27T09:17:52.325Z,1034.66
2019-03-27T09:18:52.263Z,1034.67
2019-03-27T09:19:52.353Z,1034.64
2019-03-27T09:20:52.281Z,1034.66
2019-03-27T09:21:52.347Z,1034.66
2019-03-27T09:22:52.351Z,1034.66
2019-03-27T09:23:52.374Z,1034.69
2019-03-27T09:24:52.403Z,1034.7
2019-03-27T09:25:52.330Z,1034.72
2019-03-27T09:26:52.370Z,1034.69
2019-03-27T09:27:52.490Z,1034.7
2019-03-27T09:28:52.366Z,1034.72
2019-03-27T09:29:52.402Z,1034.72
2019-03-27T09:30:52.563Z,1034.68
2019-03-27T09:31:52.476Z,1034.72
2019-03-27T09:32:52.443Z,1034.71
2019-03-27T09:33:52.446Z,1034.73
2019-03-27T09:34:52.452Z,1034.72
2019-03-27T09:35:52.437Z,1034.74
2019-03-27T09:36:52.245Z,1034.72
2019-03-27T09:37:52.201Z,1034.74
2019-03-27T09:38:52.213Z,1034.74
2019-03-27T09:39:52.271Z,1034.69
2019-03-27T09:40:52.282Z,1034.73
2019-03-27T09:41:52.560Z,1034.67
2019-03-27T09:42:52.267Z,1034.67
2019-03-27T09:43:52.436Z,1034.67
2019-03-27T09:44:52.270Z,1034.65
2019-03-27T09:45:52.429Z,1034.64
2019-03-27T09:46:52.368Z,1034.62
2019-03-27T09:47:52.380Z,1034.62
2019-03-27T09:48:52.386Z,1034.61
2019-03-27T09:49:52.509Z,1034.61
2019-03-27T09:50:52.460Z,1034.58
2019-03-27T09:51:52.555Z,1034.55
2019-03-27T09:52:52.834Z,1034.54
2019-03-27T09:53:53.541Z,1034.54
2019-03-27T09:54:52.298Z,1034.5
2019-03-27T09:55:52.210Z,1034.48
2019-03-27T09:56:52.249Z,1034.45
2019-03-27T09:57:52.295Z,1034.43
2019-03-27T09:58:52.332Z,1034.46
2019-03-27T09:59:52.303Z,1034.41
2019-03-27T10:00:52.309Z,1034.39
2019-03-27T10:01:52.288Z,1034.42
2019-03-27T10:02:52.447Z,1034.37
2019-03-27T10:03:52.440Z,1034.38
2019-03-27T10:04:56.281Z,1034.41
2019-03-27T10:05:52.344Z,1034.4
2019-03-27T10:06:52.500Z,1034.42
2019-03-27T10:07:52.481Z,1034.42
2019-03-27T10:08:52.387Z,1034.41
2019-03-27T10:09:52.449Z,1034.4
2019-03-27T10:10:52.541Z,1034.42
2019-03-27T10:11:52.411Z,1034.4
2019-03-27T10:12:52.469Z,1034.41
2019-03-27T10:13:52.523Z,1034.42
2019-03-27T10:14:52.191Z,1034.44
2019-03-27T10:15:52.212Z,1034.43
2019-03-27T10:16:52.198Z,1034.47
2019-03-27T10:17:52.255Z,1034.45
2019-03-27T10:18:52.203Z,1034.49
2019-03-27T10:20:04.415Z,1034.47
2019-03-27T10:20:52.249Z,1034.48
2019-03-27T10:21:52.235Z,1034.52
2019-03-27T10:22:52.335Z,1034.53
2019-03-27T10:23:52.391Z,1034.53
2019-03-27T10:24:52.360Z,1034.52
2019-03-27T10:25:52.350Z,1034.52
2019-03-27T10:26:52.362Z,1034.55
2019-03-27T10:27:52.524Z,1034.52
2019-03-27T10:28:52.563Z,1034.54
2019-03-27T10:29:52.372Z,1034.49
2019-03-27T10:30:52.384Z,1034.49
2019-03-27T10:31:52.432Z,1034.51
2019-03-27T10:32:52.285Z,1034.53
2019-03-27T10:33:52.233Z,1034.53
2019-03-27T10:34:52.229Z,1034.52
2019-03-27T10:35:52.259Z,1034.55
2019-03-27T10:36:52.218Z,1034.55
2019-03-27T10:37:52.218Z,1034.53
2019-03-27T10:38:52.304Z,1034.56
2019-03-27T10:39:52.424Z,1034.54
2019-03-27T10:40:52.263Z,1034.56
2019-03-27T10:41:52.416Z,1034.57
2019-03-27T10:42:52.287Z,1034.6
2019-03-27T10:43:52.364Z,1034.57
2019-03-27T10:44:52.338Z,1034.56
2019-03-27T10:45:52.502Z,1034.54
2019-03-27T10:46:52.332Z,1034.55
2019-03-27T10:47:52.373Z,1034.57
2019-03-27T10:48:53.347Z,1034.58
2019-03-27T10:49:52.430Z,1034.56
2019-03-27T10:50:52.516Z,1034.6
2019-03-27T10:51:52.393Z,1034.58
2019-03-27T10:52:52.546Z,1034.61
2019-03-27T10:53:52.107Z,1034.63
2019-03-27T10:54:52.150Z,1034.64
2019-03-27T10:55:52.155Z,1034.65
2019-03-27T10:56:52.475Z,1034.65
2019-03-27T10:57:52.691Z,1034.65
2019-03-27T10:58:52.212Z,1034.66
2019-03-27T10:59:52.227Z,1034.64
2019-03-27T11:00:52.346Z,1034.61
2019-03-27T11:01:52.289Z,1034.64
2019-03-27T11:02:52.399Z,1034.65
2019-03-27T11:03:52.280Z,1034.65
2019-03-27T11:04:52.291Z,1034.7
2019-03-27T11:05:52.289Z,1034.67
2019-03-27T11:06:52.309Z,1034.64
2019-03-27T11:07:52.381Z,1034.62
2019-03-27T11:08:52.375Z,1034.6
2019-03-27T11:09:52.365Z,1034.6
2019-03-27T11:10:52.383Z,1034.61
2019-03-27T11:11:52.225Z,1034.62
2019-03-27T11:12:52.168Z,1034.59
2019-03-27T11:13:52.190Z,1034.6
2019-03-27T11:14:52.194Z,1034.61
2019-03-27T11:15:52.236Z,1034.59
2019-03-27T11:16:52.232Z,1034.58
2019-03-27T11:17:52.279Z,1034.6
2019-03-27T11:18:52.655Z,1034.53
2019-03-27T11:19:52.335Z,1034.51
2019-03-27T11:20:52.344Z,1034.53
2019-03-27T11:21:52.381Z,1034.5
2019-03-27T11:22:52.308Z,1034.51
2019-03-27T11:23:52.394Z,1034.52
2019-03-27T11:24:52.357Z,1034.5
2019-03-27T11:25:52.355Z,1034.54
2019-03-27T11:26:52.377Z,1034.51
2019-03-27T11:27:52.452Z,1034.5
2019-03-27T11:28:52.378Z,1034.53
2019-03-27T11:29:52.416Z,1034.57
2019-03-27T11:30:52.504Z,1034.61
2019-03-27T11:31:52.119Z,1034.59
2019-03-27T11:32:52.513Z,1034.64
2019-03-27T11:33:52.232Z,1034.6
2019-03-27T11:34:52.172Z,1034.59
2019-03-27T11:35:52.209Z,1034.61
2019-03-27T11:36:52.206Z,1034.6
2019-03-27T11:37:52.401Z,1034.57
2019-03-27T11:38:52.402Z,1034.56
2019-03-27T11:39:52.421Z,1034.57
2019-03-27T11:40:52.263Z,1034.56
2019-03-27T11:41:52.243Z,1034.54
2019-03-27T11:42:53.402Z,1034.56
2019-03-27T11:43:55.564Z,1034.55
2019-03-27T11:44:52.350Z,1034.52
2019-03-27T11:45:52.712Z,1034.51
2019-03-27T11:46:52.332Z,1034.5
2019-03-27T11:47:52.343Z,1034.53
2019-03-27T11:48:52.336Z,1034.51
2019-03-27T11:49:52.607Z,1034.49
2019-03-27T11:50:52.183Z,1034.45
2019-03-27T11:51:52.146Z,1034.48
2019-03-27T11:52:52.240Z,1034.45
2019-03-27T11:53:52.212Z,1034.44
2019-03-27T11:54:52.413Z,1034.42
2019-03-27T11:55:52.338Z,1034.44
2019-03-27T11:56:52.256Z,1034.4
2019-03-27T11:57:52.333Z,1034.42
2019-03-27T11:58:52.265Z,1034.41
2019-03-27T11:59:54.649Z,1034.4
2019-03-27T12:00:55.376Z,1034.44
2019-03-27T12:01:52.283Z,1034.43
2019-03-27T12:02:52.315Z,1034.42
2019-03-27T12:03:52.319Z,1034.43
2019-03-27T12:04:52.318Z,1034.43
2019-03-27T12:05:52.453Z,1034.42
2019-03-27T12:06:52.584Z,1034.4
2019-03-27T12:07:52.557Z,1034.41
2019-03-27T12:08:52.383Z,1034.43